sensor_id;sensor_type;location;lat;lon;timestamp;pressure;altitude;pressure_sealevel;temperature;humidity
11114;BME280;5610;52.154;9.198;2023-04-21T00:02:40;100826.69;;;10.22;100.00
11114;BME280;5610;52.154;9.198;2023-04-21T00:05:25;100817.69;;;10.25;100.00
11114;BME280;5610;52.154;9.198;2023-04-21T00:08:12;100812.78;;;10.33;100.00
11114;BME280;5610;52.154;9.198;2023-04-21T00:10:58;100813.38;;;10.38;100.00
11114;BME280;5610;52.154;9.198;2023-04-21T00:13:43;100797.97;;;10.43;100.00
11114;BME280;5610;52.154;9.198;2023-04-21T00:16:29;100802.06;;;10.49;100.00
11114;BME280;5610;52.154;9.198;2023-04-21T00:19:14;100795.53;;;10.54;100.00
11114;BME280;5610;52.154;9.198;2023-04-21T00:21:59;100790.09;;;10.56;100.00
11114;BME280;5610;52.154;9.198;2023-04-21T00:24:46;100786.03;;;10.50;100.00
11114;BME280;5610;52.154;9.198;2023-04-21T00:27:31;100780.41;;;10.55;100.00
11114;BME280;5610;52.154;9.198;2023-04-21T00:30:16;100790.19;;;10.54;100.00
11114;BME280;5610;52.154;9.198;2023-04-21T00:33:01;100782.47;;;10.50;100.00
11114;BME280;5610;52.154;9.198;2023-04-21T00:35:47;100785.03;;;10.37;100.00
11114;BME280;5610;52.154;9.198;2023-04-21T00:38:32;100789.41;;;10.38;100.00
11114;BME280;5610;52.154;9.198;2023-04-21T00:41:19;100780.34;;;10.40;100.00
11114;BME280;5610;52.154;9.198;2023-04-21T00:44:05;100784.81;;;10.40;100.00
11114;BME280;5610;52.154;9.198;2023-04-21T00:46:50;100783.28;;;10.36;100.00
11114;BME280;5610;52.154;9.198;2023-04-21T00:49:36;100778.81;;;10.21;100.00
11114;BME280;5610;52.154;9.198;2023-04-21T00:52:21;100780.53;;;10.22;100.00
11114;BME280;5610;52.154;9.198;2023-04-21T00:55:07;100782.00;;;10.11;100.00
11114;BME280;5610;52.154;9.198;2023-04-21T00:57:54;100776.38;;;10.02;100.00
11114;BME280;5610;52.154;9.198;2023-04-21T01:00:45;100784.69;;;10.11;100.00
11114;BME280;5610;52.154;9.198;2023-04-21T01:03:30;100781.91;;;10.13;100.00
11114;BME280;5610;52.154;9.198;2023-04-21T01:06:16;100775.66;;;9.98;100.00
11114;BME280;5610;52.154;9.198;2023-04-21T01:09:01;100774.66;;;10.01;100.00
11114;BME280;5610;52.154;9.198;2023-04-21T01:12:01;100767.53;;;10.01;100.00
11114;BME280;5610;52.154;9.198;2023-04-21T01:14:48;100768.97;;;9.91;100.00
11114;BME280;5610;52.154;9.198;2023-04-21T01:17:33;100762.91;;;9.89;100.00
11114;BME280;5610;52.154;9.198;2023-04-21T01:20:21;100769.75;;;9.93;100.00
11114;BME280;5610;52.154;9.198;2023-04-21T01:23:07;100761.69;;;9.95;100.00
11114;BME280;5610;52.154;9.198;2023-04-21T01:25:53;100760.91;;;9.93;100.00
11114;BME280;5610;52.154;9.198;2023-04-21T01:28:38;100764.69;;;10.04;100.00
11114;BME280;5610;52.154;9.198;2023-04-21T01:31:24;100751.63;;;10.00;100.00
11114;BME280;5610;52.154;9.198;2023-04-21T01:34:10;100752.91;;;10.08;100.00
11114;BME280;5610;52.154;9.198;2023-04-21T01:36:55;100743.03;;;10.10;100.00
11114;BME280;5610;52.154;9.198;2023-04-21T01:39:44;100744.53;;;10.14;100.00
11114;BME280;5610;52.154;9.198;2023-04-21T01:42:31;100747.81;;;10.19;100.00
11114;BME280;5610;52.154;9.198;2023-04-21T01:45:16;100749.81;;;10.16;100.00
11114;BME280;5610;52.154;9.198;2023-04-21T01:48:02;100753.84;;;10.07;100.00
11114;BME280;5610;52.154;9.198;2023-04-21T01:50:47;100752.97;;;10.07;100.00
11114;BME280;5610;52.154;9.198;2023-04-21T01:53:32;100757.63;;;10.03;100.00
11114;BME280;5610;52.154;9.198;2023-04-21T01:56:20;100762.97;;;10.03;100.00
11114;BME280;5610;52.154;9.198;2023-04-21T01:59:06;100762.53;;;10.11;100.00
11114;BME280;5610;52.154;9.198;2023-04-21T02:01:52;100765.09;;;10.12;100.00
11114;BME280;5610;52.154;9.198;2023-04-21T02:04:37;100757.50;;;10.21;100.00
11114;BME280;5610;52.154;9.198;2023-04-21T02:07:23;100756.25;;;10.28;100.00
11114;BME280;5610;52.154;9.198;2023-04-21T02:10:10;100758.75;;;10.15;100.00
11114;BME280;5610;52.154;9.198;2023-04-21T02:12:57;100769.16;;;10.04;100.00
11114;BME280;5610;52.154;9.198;2023-04-21T02:15:43;100760.91;;;10.08;100.00
11114;BME280;5610;52.154;9.198;2023-04-21T02:18:30;100771.53;;;9.93;100.00
11114;BME280;5610;52.154;9.198;2023-04-21T02:21:15;100771.63;;;9.91;100.00
11114;BME280;5610;52.154;9.198;2023-04-21T02:24:00;100769.50;;;9.82;100.00
11114;BME280;5610;52.154;9.198;2023-04-21T02:26:45;100769.66;;;9.79;100.00
11114;BME280;5610;52.154;9.198;2023-04-21T02:29:32;100765.28;;;9.78;100.00
11114;BME280;5610;52.154;9.198;2023-04-21T02:32:17;100762.28;;;9.68;100.00
11114;BME280;5610;52.154;9.198;2023-04-21T02:35:02;100761.97;;;9.74;100.00
11114;BME280;5610;52.154;9.198;2023-04-21T02:37:48;100760.06;;;9.76;100.00
11114;BME280;5610;52.154;9.198;2023-04-21T02:40:33;100760.31;;;9.72;100.00
11114;BME280;5610;52.154;9.198;2023-04-21T02:43:18;100770.63;;;9.62;100.00
11114;BME280;5610;52.154;9.198;2023-04-21T02:46:07;100767.78;;;9.49;100.00
11114;BME280;5610;52.154;9.198;2023-04-21T02:48:53;100774.03;;;9.32;100.00
11114;BME280;5610;52.154;9.198;2023-04-21T02:51:38;100784.75;;;9.31;100.00
11114;BME280;5610;52.154;9.198;2023-04-21T02:54:24;100777.69;;;9.30;100.00
11114;BME280;5610;52.154;9.198;2023-04-21T02:57:09;100772.66;;;9.41;100.00
11114;BME280;5610;52.154;9.198;2023-04-21T02:59:54;100774.22;;;9.45;100.00
11114;BME280;5610;52.154;9.198;2023-04-21T03:02:41;100774.13;;;9.47;100.00
11114;BME280;5610;52.154;9.198;2023-04-21T03:05:27;100771.38;;;9.48;100.00
11114;BME280;5610;52.154;9.198;2023-04-21T03:08:12;100768.28;;;9.56;100.00
11114;BME280;5610;52.154;9.198;2023-04-21T03:10:57;100766.81;;;9.50;100.00
11114;BME280;5610;52.154;9.198;2023-04-21T03:13:43;100771.19;;;9.51;100.00
11114;BME280;5610;52.154;9.198;2023-04-21T03:16:29;100773.28;;;9.46;100.00
11114;BME280;5610;52.154;9.198;2023-04-21T03:19:15;100771.03;;;9.54;100.00
11114;BME280;5610;52.154;9.198;2023-04-21T03:22:02;100770.34;;;9.51;100.00
11114;BME280;5610;52.154;9.198;2023-04-21T03:24:47;100762.81;;;9.59;100.00
11114;BME280;5610;52.154;9.198;2023-04-21T03:27:33;100763.69;;;9.59;100.00
11114;BME280;5610;52.154;9.198;2023-04-21T03:30:18;100765.47;;;9.59;100.00
11114;BME280;5610;52.154;9.198;2023-04-21T03:33:03;100766.34;;;9.59;100.00
11114;BME280;5610;52.154;9.198;2023-04-21T03:35:51;100768.28;;;9.56;100.00
11114;BME280;5610;52.154;9.198;2023-04-21T03:38:37;100760.06;;;9.45;100.00
11114;BME280;5610;52.154;9.198;2023-04-21T03:41:22;100767.53;;;9.38;100.00
11114;BME280;5610;52.154;9.198;2023-04-21T03:44:07;100767.44;;;9.40;100.00
11114;BME280;5610;52.154;9.198;2023-04-21T03:46:53;100769.06;;;9.42;100.00
11114;BME280;5610;52.154;9.198;2023-04-21T03:49:40;100772.09;;;9.52;100.00
11114;BME280;5610;52.154;9.198;2023-04-21T03:52:27;100765.88;;;9.51;100.00
11114;BME280;5610;52.154;9.198;2023-04-21T03:55:12;100766.75;;;9.52;100.00
11114;BME280;5610;52.154;9.198;2023-04-21T03:57:57;100762.13;;;9.55;100.00
11114;BME280;5610;52.154;9.198;2023-04-21T04:00:42;100757.56;;;9.57;100.00
11114;BME280;5610;52.154;9.198;2023-04-21T04:03:27;100757.50;;;9.59;100.00
11114;BME280;5610;52.154;9.198;2023-04-21T04:06:13;100758.06;;;9.64;100.00
11114;BME280;5610;52.154;9.198;2023-04-21T04:08:59;100755.06;;;9.70;100.00
11114;BME280;5610;52.154;9.198;2023-04-21T04:11:47;100755.25;;;9.67;100.00
11114;BME280;5610;52.154;9.198;2023-04-21T04:14:32;100756.47;;;9.61;100.00
11114;BME280;5610;52.154;9.198;2023-04-21T04:17:17;100753.72;;;9.63;100.00
11114;BME280;5610;52.154;9.198;2023-04-21T04:20:04;100752.84;;;9.62;100.00
11114;BME280;5610;52.154;9.198;2023-04-21T04:22:49;100756.97;;;9.68;100.00
11114;BME280;5610;52.154;9.198;2023-04-21T04:25:36;100755.25;;;9.67;100.00
11114;BME280;5610;52.154;9.198;2023-04-21T04:28:22;100757.66;;;9.72;100.00
11114;BME280;5610;52.154;9.198;2023-04-21T04:31:07;100759.31;;;9.74;100.00
11114;BME280;5610;52.154;9.198;2023-04-21T04:33:52;100756.47;;;9.61;100.00
11114;BME280;5610;52.154;9.198;2023-04-21T04:36:37;100751.81;;;9.81;100.00
11114;BME280;5610;52.154;9.198;2023-04-21T04:39:23;100752.34;;;9.87;100.00
11114;BME280;5610;52.154;9.198;2023-04-21T04:42:10;100754.06;;;9.73;100.00
11114;BME280;5610;52.154;9.198;2023-04-21T04:44:55;100746.25;;;9.70;100.00
11114;BME280;5610;52.154;9.198;2023-04-21T04:47:42;100750.28;;;9.77;100.00
11114;BME280;5610;52.154;9.198;2023-04-21T04:50:28;100745.28;;;9.71;100.00
11114;BME280;5610;52.154;9.198;2023-04-21T04:53:15;100753.19;;;9.72;100.00
11114;BME280;5610;52.154;9.198;2023-04-21T04:56:00;100755.84;;;9.72;100.00
11114;BME280;5610;52.154;9.198;2023-04-21T04:58:47;100751.66;;;9.84;100.00
11114;BME280;5610;52.154;9.198;2023-04-21T05:01:32;100757.72;;;9.86;100.00
11114;BME280;5610;52.154;9.198;2023-04-21T05:04:18;100756.00;;;9.85;100.00
11114;BME280;5610;52.154;9.198;2023-04-21T05:07:03;100759.09;;;9.93;100.00
11114;BME280;5610;52.154;9.198;2023-04-21T05:09:50;100759.34;;;10.04;100.00
11114;BME280;5610;52.154;9.198;2023-04-21T05:12:35;100761.34;;;10.01;100.00
11114;BME280;5610;52.154;9.198;2023-04-21T05:15:21;100752.72;;;10.11;100.00
11114;BME280;5610;52.154;9.198;2023-04-21T05:18:07;100753.22;;;10.18;100.00
11114;BME280;5610;52.154;9.198;2023-04-21T05:20:52;100772.31;;;10.10;100.00
11114;BME280;5610;52.154;9.198;2023-04-21T05:23:37;100768.78;;;10.26;100.00
11114;BME280;5610;52.154;9.198;2023-04-21T05:26:23;100757.78;;;10.32;100.00
11114;BME280;5610;52.154;9.198;2023-04-21T05:29:08;100754.66;;;10.39;100.00
11114;BME280;5610;52.154;9.198;2023-04-21T05:31:55;100757.34;;;10.39;100.00
11114;BME280;5610;52.154;9.198;2023-04-21T05:34:40;100755.81;;;10.50;100.00
11114;BME280;5610;52.154;9.198;2023-04-21T05:37:25;100753.50;;;10.59;100.00
11114;BME280;5610;52.154;9.198;2023-04-21T05:40:11;100759.56;;;10.61;100.00
11114;BME280;5610;52.154;9.198;2023-04-21T05:42:56;100771.06;;;10.48;100.00
11114;BME280;5610;52.154;9.198;2023-04-21T05:45:41;100774.56;;;10.48;100.00
11114;BME280;5610;52.154;9.198;2023-04-21T05:48:28;100777.06;;;10.51;100.00
11114;BME280;5610;52.154;9.198;2023-04-21T05:51:13;100781.44;;;10.52;100.00
11114;BME280;5610;52.154;9.198;2023-04-21T05:53:59;100782.59;;;10.62;100.00
11114;BME280;5610;52.154;9.198;2023-04-21T05:56:44;100782.59;;;10.62;100.00
11114;BME280;5610;52.154;9.198;2023-04-21T05:59:31;100765.56;;;10.51;100.00
11114;BME280;5610;52.154;9.198;2023-04-21T06:02:16;100775.25;;;10.52;100.00
11114;BME280;5610;52.154;9.198;2023-04-21T06:05:03;100771.28;;;10.59;100.00
11114;BME280;5610;52.154;9.198;2023-04-21T06:07:49;100774.38;;;10.81;100.00
11114;BME280;5610;52.154;9.198;2023-04-21T06:10:34;100777.34;;;10.91;100.00
11114;BME280;5610;52.154;9.198;2023-04-21T06:13:19;100767.63;;;11.04;100.00
11114;BME280;5610;52.154;9.198;2023-04-21T06:16:05;100766.63;;;11.21;100.00
11114;BME280;5610;52.154;9.198;2023-04-21T06:18:50;100764.00;;;11.19;100.00
11114;BME280;5610;52.154;9.198;2023-04-21T06:21:37;100763.09;;;11.35;100.00
11114;BME280;5610;52.154;9.198;2023-04-21T06:24:22;100759.84;;;11.44;100.00
11114;BME280;5610;52.154;9.198;2023-04-21T06:27:09;100755.72;;;11.38;100.00
11114;BME280;5610;52.154;9.198;2023-04-21T06:29:55;100753.81;;;11.40;100.00
11114;BME280;5610;52.154;9.198;2023-04-21T06:32:40;100759.84;;;11.44;100.00
11114;BME280;5610;52.154;9.198;2023-04-21T06:35:25;100755.13;;;11.47;100.00
11114;BME280;5610;52.154;9.198;2023-04-21T06:38:12;100762.97;;;11.50;100.00
11114;BME280;5610;52.154;9.198;2023-04-21T06:40:57;100749.75;;;11.76;100.00
11114;BME280;5610;52.154;9.198;2023-04-21T06:43:43;100753.69;;;11.85;100.00
11114;BME280;5610;52.154;9.198;2023-04-21T06:46:28;100742.59;;;11.91;100.00
11114;BME280;5610;52.154;9.198;2023-04-21T06:49:13;100753.06;;;11.94;100.00
11114;BME280;5610;52.154;9.198;2023-04-21T06:51:58;100740.31;;;12.12;100.00
11114;BME280;5610;52.154;9.198;2023-04-21T06:54:45;100740.34;;;12.24;100.00
11114;BME280;5610;52.154;9.198;2023-04-21T06:57:30;100745.97;;;12.34;100.00
11114;BME280;5610;52.154;9.198;2023-04-21T07:00:16;100744.66;;;12.40;100.00
11114;BME280;5610;52.154;9.198;2023-04-21T07:03:01;100746.75;;;12.49;100.00
11114;BME280;5610;52.154;9.198;2023-04-21T07:05:46;100745.78;;;12.50;100.00
11114;BME280;5610;52.154;9.198;2023-04-21T07:08:31;100752.09;;;12.61;100.00
11114;BME280;5610;52.154;9.198;2023-04-21T07:11:18;100754.78;;;12.74;100.00
11114;BME280;5610;52.154;9.198;2023-04-21T07:14:03;100750.28;;;12.87;100.00
11114;BME280;5610;52.154;9.198;2023-04-21T07:16:49;100752.97;;;13.00;100.00
11114;BME280;5610;52.154;9.198;2023-04-21T07:19:35;100737.16;;;12.97;100.00
11114;BME280;5610;52.154;9.198;2023-04-21T07:22:21;100734.69;;;13.07;100.00
11114;BME280;5610;52.154;9.198;2023-04-21T07:25:06;100732.53;;;13.37;100.00
11114;BME280;5610;52.154;9.198;2023-04-21T07:27:53;100736.41;;;13.33;100.00
11114;BME280;5610;52.154;9.198;2023-04-21T07:30:38;100740.00;;;13.45;100.00
11114;BME280;5610;52.154;9.198;2023-04-21T07:33:23;100741.25;;;13.65;100.00
11114;BME280;5610;52.154;9.198;2023-04-21T07:36:08;100737.22;;;13.83;100.00
11114;BME280;5610;52.154;9.198;2023-04-21T07:38:54;100737.22;;;13.83;100.00
11114;BME280;5610;52.154;9.198;2023-04-21T07:41:39;100730.94;;;13.71;100.00
11114;BME280;5610;52.154;9.198;2023-04-21T07:44:26;100740.63;;;14.09;100.00
11114;BME280;5610;52.154;9.198;2023-04-21T07:47:12;100727.63;;;14.16;100.00
11114;BME280;5610;52.154;9.198;2023-04-21T07:49:57;100737.72;;;14.36;100.00
11114;BME280;5610;52.154;9.198;2023-04-21T07:52:42;100730.25;;;14.52;100.00
11114;BME280;5610;52.154;9.198;2023-04-21T07:55:27;100738.81;;;14.69;100.00
11114;BME280;5610;52.154;9.198;2023-04-21T07:58:13;100736.25;;;14.67;100.00
11114;BME280;5610;52.154;9.198;2023-04-21T08:01:00;100728.72;;;14.83;100.00
11114;BME280;5610;52.154;9.198;2023-04-21T08:03:45;100733.38;;;14.93;100.00
11114;BME280;5610;52.154;9.198;2023-04-21T08:06:30;100717.06;;;15.18;100.00
11114;BME280;5610;52.154;9.198;2023-04-21T08:09:16;100719.47;;;14.99;100.00
11114;BME280;5610;52.154;9.198;2023-04-21T08:12:01;100722.78;;;15.14;100.00
11114;BME280;5610;52.154;9.198;2023-04-21T08:14:46;100714.59;;;15.15;100.00
11114;BME280;5610;52.154;9.198;2023-04-21T08:17:33;100711.75;;;15.50;100.00
11114;BME280;5610;52.154;9.198;2023-04-21T08:20:18;100720.41;;;15.87;100.00
11114;BME280;5610;52.154;9.198;2023-04-21T08:23:04;100715.28;;;15.84;100.00
11114;BME280;5610;52.154;9.198;2023-04-21T08:25:49;100712.47;;;16.18;100.00
11114;BME280;5610;52.154;9.198;2023-04-21T08:28:34;100723.50;;;16.15;100.00
11114;BME280;5610;52.154;9.198;2023-04-21T08:31:20;100713.97;;;16.43;100.00
11114;BME280;5610;52.154;9.198;2023-04-21T08:34:06;100710.44;;;16.63;100.00
11114;BME280;5610;52.154;9.198;2023-04-21T08:36:52;100708.59;;;16.85;100.00
11114;BME280;5610;52.154;9.198;2023-04-21T08:39:37;100714.03;;;16.94;100.00
11114;BME280;5610;52.154;9.198;2023-04-21T08:42:22;100709.34;;;16.96;100.00
11114;BME280;5610;52.154;9.198;2023-04-21T08:45:08;100716.47;;;17.28;100.00
11114;BME280;5610;52.154;9.198;2023-04-21T08:47:54;100709.50;;;17.75;100.00
11114;BME280;5610;52.154;9.198;2023-04-21T08:50:43;100702.56;;;17.73;96.46
11114;BME280;5610;52.154;9.198;2023-04-21T08:53:29;100706.31;;;18.01;93.69
11114;BME280;5610;52.154;9.198;2023-04-21T08:56:14;100704.88;;;18.06;92.69
11114;BME280;5610;52.154;9.198;2023-04-21T08:58:59;100699.19;;;18.38;89.37
11114;BME280;5610;52.154;9.198;2023-04-21T09:02:07;100694.63;;;18.58;88.37
11114;BME280;5610;52.154;9.198;2023-04-21T09:04:53;100693.56;;;18.98;85.90
11114;BME280;5610;52.154;9.198;2023-04-21T09:07:40;100687.47;;;19.24;82.65
11114;BME280;5610;52.154;9.198;2023-04-21T09:10:25;100689.84;;;19.36;80.55
11114;BME280;5610;52.154;9.198;2023-04-21T09:13:11;100682.06;;;19.33;78.56
11114;BME280;5610;52.154;9.198;2023-04-21T09:15:57;100683.44;;;19.37;79.27
11114;BME280;5610;52.154;9.198;2023-04-21T09:18:43;100683.75;;;19.34;76.11
11114;BME280;5610;52.154;9.198;2023-04-21T09:21:28;100690.69;;;19.74;74.80
11114;BME280;5610;52.154;9.198;2023-04-21T09:24:16;100684.13;;;20.12;74.18
11114;BME280;5610;52.154;9.198;2023-04-21T09:27:02;100676.41;;;20.43;70.19
11114;BME280;5610;52.154;9.198;2023-04-21T09:29:47;100674.19;;;20.82;68.03
11114;BME280;5610;52.154;9.198;2023-04-21T09:32:36;100662.22;;;21.27;67.47
11114;BME280;5610;52.154;9.198;2023-04-21T09:35:26;100673.38;;;21.50;63.78
11114;BME280;5610;52.154;9.198;2023-04-21T09:38:11;100663.59;;;21.82;61.40
11114;BME280;5610;52.154;9.198;2023-04-21T09:40:58;100655.06;;;21.52;59.42
11114;BME280;5610;52.154;9.198;2023-04-21T09:43:44;100654.81;;;21.80;58.23
11114;BME280;5610;52.154;9.198;2023-04-21T09:46:32;100652.66;;;22.32;59.24
11114;BME280;5610;52.154;9.198;2023-04-21T09:49:17;100649.03;;;22.72;57.18
11114;BME280;5610;52.154;9.198;2023-04-21T09:52:06;100652.25;;;21.78;55.61
11114;BME280;5610;52.154;9.198;2023-04-21T09:54:56;100634.91;;;21.63;55.71
11114;BME280;5610;52.154;9.198;2023-04-21T09:57:46;100634.00;;;22.21;55.75
11114;BME280;5610;52.154;9.198;2023-04-21T10:00:32;100626.34;;;22.57;55.08
11114;BME280;5610;52.154;9.198;2023-04-21T10:03:24;100632.41;;;22.92;53.69
11114;BME280;5610;52.154;9.198;2023-04-21T10:06:11;100617.56;;;22.23;51.90
11114;BME280;5610;52.154;9.198;2023-04-21T10:08:57;100622.25;;;22.69;50.72
11114;BME280;5610;52.154;9.198;2023-04-21T10:11:42;100615.41;;;22.82;48.84
11114;BME280;5610;52.154;9.198;2023-04-21T10:14:29;100617.59;;;23.34;49.75
11114;BME280;5610;52.154;9.198;2023-04-21T10:17:15;100612.38;;;23.24;49.02
11114;BME280;5610;52.154;9.198;2023-04-21T10:20:00;100598.34;;;23.12;48.19
11114;BME280;5610;52.154;9.198;2023-04-21T10:22:56;100610.31;;;23.65;46.89
11114;BME280;5610;52.154;9.198;2023-04-21T10:25:41;100601.09;;;23.35;46.27
11114;BME280;5610;52.154;9.198;2023-04-21T10:28:45;100587.44;;;23.74;46.81
11114;BME280;5610;52.154;9.198;2023-04-21T10:31:32;100590.72;;;23.70;47.26
11114;BME280;5610;52.154;9.198;2023-04-21T10:34:28;100593.09;;;23.42;46.69
11114;BME280;5610;52.154;9.198;2023-04-21T10:37:17;100584.09;;;24.10;45.62
11114;BME280;5610;52.154;9.198;2023-04-21T10:40:03;100576.47;;;25.32;43.65
11114;BME280;5610;52.154;9.198;2023-04-21T10:42:52;100566.53;;;26.31;41.61
11114;BME280;5610;52.154;9.198;2023-04-21T10:45:37;100558.22;;;28.49;37.41
11114;BME280;5610;52.154;9.198;2023-04-21T10:48:25;100563.97;;;29.50;35.41
11114;BME280;5610;52.154;9.198;2023-04-21T10:51:10;100542.81;;;31.12;32.99
11114;BME280;5610;52.154;9.198;2023-04-21T10:53:55;100544.97;;;33.23;30.76
11114;BME280;5610;52.154;9.198;2023-04-21T10:56:40;100537.06;;;33.72;29.96
11114;BME280;5610;52.154;9.198;2023-04-21T10:59:26;100525.28;;;35.04;28.75
11114;BME280;5610;52.154;9.198;2023-04-21T11:02:13;100523.25;;;35.21;28.44
11114;BME280;5610;52.154;9.198;2023-04-21T11:05:00;100533.78;;;33.75;28.77
11114;BME280;5610;52.154;9.198;2023-04-21T11:07:46;100510.19;;;36.93;27.68
11114;BME280;5610;52.154;9.198;2023-04-21T11:10:41;100503.75;;;36.35;26.69
11114;BME280;5610;52.154;9.198;2023-04-21T11:13:26;100490.28;;;36.11;26.63
11114;BME280;5610;52.154;9.198;2023-04-21T11:16:16;100491.59;;;36.41;26.16
11114;BME280;5610;52.154;9.198;2023-04-21T11:19:01;100485.34;;;37.59;25.23
11114;BME280;5610;52.154;9.198;2023-04-21T11:21:49;100477.84;;;37.44;25.11
11114;BME280;5610;52.154;9.198;2023-04-21T11:24:34;100489.28;;;35.58;25.48
11114;BME280;5610;52.154;9.198;2023-04-21T11:27:19;100475.22;;;37.07;25.14
11114;BME280;5610;52.154;9.198;2023-04-21T11:30:06;100478.41;;;36.16;25.41
11114;BME280;5610;52.154;9.198;2023-04-21T11:32:55;100460.53;;;35.10;25.69
11114;BME280;5610;52.154;9.198;2023-04-21T11:35:40;100467.56;;;33.80;26.80
11114;BME280;5610;52.154;9.198;2023-04-21T11:38:35;100442.00;;;34.89;25.80
11114;BME280;5610;52.154;9.198;2023-04-21T11:41:22;100440.16;;;34.51;26.19
11114;BME280;5610;52.154;9.198;2023-04-21T11:44:08;100444.09;;;37.00;24.90
11114;BME280;5610;52.154;9.198;2023-04-21T11:46:53;100451.72;;;36.62;25.64
11114;BME280;5610;52.154;9.198;2023-04-21T11:49:43;100442.88;;;38.64;23.89
11114;BME280;5610;52.154;9.198;2023-04-21T11:52:31;100432.16;;;36.99;24.27
11114;BME280;5610;52.154;9.198;2023-04-21T11:55:18;100451.50;;;36.79;24.67
11114;BME280;5610;52.154;9.198;2023-04-21T11:58:03;100451.41;;;37.62;24.10
11114;BME280;5610;52.154;9.198;2023-04-21T12:00:49;100443.06;;;38.08;23.68
11114;BME280;5610;52.154;9.198;2023-04-21T12:03:34;100434.31;;;38.45;23.76
11114;BME280;5610;52.154;9.198;2023-04-21T12:06:21;100443.34;;;37.30;23.95
11114;BME280;5610;52.154;9.198;2023-04-21T12:09:07;100437.34;;;34.29;25.39
11114;BME280;5610;52.154;9.198;2023-04-21T12:11:55;100444.34;;;34.97;25.28
11114;BME280;5610;52.154;9.198;2023-04-21T12:14:43;100440.75;;;35.29;24.98
11114;BME280;5610;52.154;9.198;2023-04-21T12:17:35;100437.41;;;36.85;24.52
11114;BME280;5610;52.154;9.198;2023-04-21T12:20:22;100444.38;;;36.98;24.28
11114;BME280;5610;52.154;9.198;2023-04-21T12:23:08;100434.31;;;38.50;23.42
11114;BME280;5610;52.154;9.198;2023-04-21T12:25:53;100430.53;;;39.30;22.39
11114;BME280;5610;52.154;9.198;2023-04-21T12:28:40;100416.31;;;38.92;23.02
11114;BME280;5610;52.154;9.198;2023-04-21T12:31:25;100421.22;;;38.56;23.06
11114;BME280;5610;52.154;9.198;2023-04-21T12:34:11;100427.16;;;38.93;22.97
11114;BME280;5610;52.154;9.198;2023-04-21T12:36:56;100427.13;;;39.38;22.40
11114;BME280;5610;52.154;9.198;2023-04-21T12:39:41;100415.69;;;39.00;22.38
11114;BME280;5610;52.154;9.198;2023-04-21T12:42:27;100413.38;;;39.12;22.21
11114;BME280;5610;52.154;9.198;2023-04-21T12:45:13;100423.63;;;37.72;23.34
11114;BME280;5610;52.154;9.198;2023-04-21T12:47:59;100419.94;;;38.87;22.79
11114;BME280;5610;52.154;9.198;2023-04-21T12:50:44;100411.34;;;39.62;22.30
11114;BME280;5610;52.154;9.198;2023-04-21T12:53:30;100421.03;;;41.79;20.69
11114;BME280;5610;52.154;9.198;2023-04-21T12:56:15;100412.81;;;39.84;21.39
11114;BME280;5610;52.154;9.198;2023-04-21T12:59:01;100397.06;;;40.65;22.04
11114;BME280;5610;52.154;9.198;2023-04-21T13:01:49;100402.75;;;40.12;21.81
11114;BME280;5610;52.154;9.198;2023-04-21T13:04:34;100389.69;;;42.23;20.69
11114;BME280;5610;52.154;9.198;2023-04-21T13:07:20;100402.16;;;41.00;21.54
11114;BME280;5610;52.154;9.198;2023-04-21T13:10:10;100390.41;;;41.68;20.54
11114;BME280;5610;52.154;9.198;2023-04-21T13:12:55;100388.28;;;42.62;20.70
11114;BME280;5610;52.154;9.198;2023-04-21T13:15:40;100380.94;;;42.38;20.55
11114;BME280;5610;52.154;9.198;2023-04-21T13:18:27;100382.41;;;43.75;19.41
11114;BME280;5610;52.154;9.198;2023-04-21T13:21:12;100371.53;;;43.43;20.16
11114;BME280;5610;52.154;9.198;2023-04-21T13:23:58;100378.38;;;44.21;19.85
11114;BME280;5610;52.154;9.198;2023-04-21T13:26:45;100375.91;;;44.20;19.36
11114;BME280;5610;52.154;9.198;2023-04-21T13:29:31;100365.25;;;44.82;19.26
11114;BME280;5610;52.154;9.198;2023-04-21T13:32:17;100358.31;;;44.80;19.43
11114;BME280;5610;52.154;9.198;2023-04-21T13:35:05;100350.97;;;44.53;19.31
11114;BME280;5610;52.154;9.198;2023-04-21T13:37:53;100343.06;;;43.58;19.45
11114;BME280;5610;52.154;9.198;2023-04-21T13:40:39;100351.69;;;42.58;20.23
11114;BME280;5610;52.154;9.198;2023-04-21T13:43:24;100341.34;;;41.11;20.74
11114;BME280;5610;52.154;9.198;2023-04-21T13:46:10;100333.53;;;41.59;20.52
11114;BME280;5610;52.154;9.198;2023-04-21T13:48:55;100333.16;;;42.21;20.52
11114;BME280;5610;52.154;9.198;2023-04-21T13:51:42;100336.88;;;41.75;21.20
11114;BME280;5610;52.154;9.198;2023-04-21T13:54:27;100333.56;;;42.14;20.00
11114;BME280;5610;52.154;9.198;2023-04-21T13:57:13;100320.59;;;41.77;20.18
11114;BME280;5610;52.154;9.198;2023-04-21T13:59:58;100319.94;;;40.69;21.67
11114;BME280;5610;52.154;9.198;2023-04-21T14:02:43;100322.25;;;39.13;22.29
11114;BME280;5610;52.154;9.198;2023-04-21T14:05:29;100314.97;;;39.75;21.63
11114;BME280;5610;52.154;9.198;2023-04-21T14:08:15;100307.03;;;39.63;21.32
11114;BME280;5610;52.154;9.198;2023-04-21T14:11:01;100309.78;;;40.35;21.50
11114;BME280;5610;52.154;9.198;2023-04-21T14:13:47;100305.31;;;40.15;21.30
11114;BME280;5610;52.154;9.198;2023-04-21T14:16:32;100304.31;;;40.68;20.77
11114;BME280;5610;52.154;9.198;2023-04-21T14:19:17;100296.22;;;37.95;22.29
11114;BME280;5610;52.154;9.198;2023-04-21T14:22:02;100290.31;;;39.34;21.99
11114;BME280;5610;52.154;9.198;2023-04-21T14:24:49;100286.53;;;37.72;22.27
11114;BME280;5610;52.154;9.198;2023-04-21T14:27:35;100289.03;;;37.78;22.46
11114;BME280;5610;52.154;9.198;2023-04-21T14:30:20;100287.84;;;36.26;23.10
11114;BME280;5610;52.154;9.198;2023-04-21T14:33:05;100279.69;;;36.88;23.01
11114;BME280;5610;52.154;9.198;2023-04-21T14:35:51;100283.81;;;37.51;22.72